BAW580 EGNT-UKBB
Flight info
| Callsign | BAW580 |
|---|---|
| Flight time | 2h 49m |
| Altitude | 37000 |
| Route | EGNT DCT NATEB N610 LONAM DCT HLZ L980 POLON M70 SLV DCT UKBB |
| Aircraft | B744/H-VGDW/C |
Departure
| Time | 2025-10-10 02:14 |
|---|---|
| Airport | Newcastle International Airport (EGNT) |
Arrival
| Time | 2025-10-10 05:03 |
|---|---|
| Airport | Boryspil International Airport (UKBB) |
| Time | Latitude | Longitude | Altitude | Speed | Heading |
|---|---|---|---|---|---|
| 2025-10-10 01:51 | 55.03744 | -1.70683 | 279 ft | 0 kts | 184° |
| 2025-10-10 01:56 | 55.03784 | -1.70679 | 279 ft | 2 kts | 178° |
| 2025-10-10 01:57 | 55.03799 | -1.70685 | 279 ft | 2 kts | 153° |
| 2025-10-10 01:57 | 55.03818 | -1.70724 | 279 ft | 1 kts | 105° |
| 2025-10-10 01:58 | 55.03819 | -1.70727 | 279 ft | 0 kts | 104° |
| 2025-10-10 01:59 | 55.03798 | -1.70558 | 279 ft | 10 kts | 96° |
| 2025-10-10 01:59 | 55.03787 | -1.70333 | 279 ft | 9 kts | 95° |
| 2025-10-10 02:00 | 55.03776 | -1.70126 | 279 ft | 8 kts | 94° |
| 2025-10-10 02:00 | 55.03775 | -1.70029 | 279 ft | 8 kts | 89° |
| 2025-10-10 02:01 | 55.03783 | -1.69850 | 279 ft | 7 kts | 84° |
| 2025-10-10 02:01 | 55.03799 | -1.69687 | 279 ft | 7 kts | 76° |
| 2025-10-10 02:02 | 55.03860 | -1.69403 | 279 ft | 6 kts | 64° |
| 2025-10-10 02:02 | 55.03878 | -1.69339 | 279 ft | 6 kts | 64° |
| 2025-10-10 02:03 | 55.03911 | -1.69219 | 279 ft | 5 kts | 64° |
| 2025-10-10 02:03 | 55.03942 | -1.69107 | 279 ft | 5 kts | 64° |
| 2025-10-10 02:04 | 55.03957 | -1.69054 | 279 ft | 5 kts | 64° |
| 2025-10-10 02:04 | 55.03984 | -1.68955 | 279 ft | 4 kts | 64° |
| 2025-10-10 02:05 | 55.04019 | -1.68821 | 279 ft | 4 kts | 66° |
| 2025-10-10 02:06 | 55.04048 | -1.68705 | 279 ft | 3 kts | 66° |
| 2025-10-10 02:06 | 55.04065 | -1.68638 | 279 ft | 3 kts | 66° |
| 2025-10-10 02:06 | 55.04073 | -1.68608 | 279 ft | 3 kts | 66° |
| 2025-10-10 02:07 | 55.04087 | -1.68554 | 279 ft | 2 kts | 66° |
| 2025-10-10 02:07 | 55.04101 | -1.68500 | 279 ft | 7 kts | 64° |
| 2025-10-10 02:08 | 55.04177 | -1.68224 | 279 ft | 13 kts | 64° |
| 2025-10-10 02:08 | 55.04251 | -1.67956 | 279 ft | 12 kts | 65° |
| 2025-10-10 02:09 | 55.04315 | -1.67709 | 279 ft | 7 kts | 65° |
| 2025-10-10 02:10 | 55.04304 | -1.67394 | 279 ft | 2 kts | 154° |
| 2025-10-10 02:12 | 55.04269 | -1.67367 | 279 ft | 10 kts | 156° |
| 2025-10-10 02:12 | 55.04206 | -1.67419 | 279 ft | 4 kts | 244° |
| 2025-10-10 02:13 | 55.04066 | -1.67942 | 280 ft | 95 kts | 246° |
| 2025-10-10 02:13 | 55.03095 | -1.71431 | 1358 ft | 186 kts | 245° |
| 2025-10-10 02:14 | 55.02984 | -1.78039 | 3727 ft | 238 kts | 318° |
| 2025-10-10 02:14 | 55.06505 | -1.78805 | 4979 ft | 278 kts | 15° |
| 2025-10-10 02:15 | 55.09198 | -1.74066 | 6911 ft | 292 kts | 66° |
| 2025-10-10 02:15 | 55.09404 | -1.66947 | 8593 ft | 304 kts | 98° |
| 2025-10-10 02:16 | 55.08199 | -1.59751 | 10208 ft | 315 kts | 109° |
| 2025-10-10 02:16 | 55.07413 | -1.56115 | 10843 ft | 326 kts | 111° |
| 2025-10-10 02:17 | 55.05616 | -1.48265 | 11465 ft | 374 kts | 112° |
| 2025-10-10 02:17 | 55.03526 | -1.39252 | 12068 ft | 421 kts | 112° |
| 2025-10-10 02:18 | 55.00124 | -1.24702 | 14583 ft | 441 kts | 112° |
| 2025-10-10 02:18 | 54.97780 | -1.14749 | 16180 ft | 453 kts | 111° |
| 2025-10-10 02:19 | 54.95009 | -1.04759 | 17675 ft | 464 kts | 119° |
| 2025-10-10 02:19 | 54.93347 | -0.99898 | 18349 ft | 470 kts | 121° |
| 2025-10-10 02:20 | 54.89988 | -0.90052 | 19850 ft | 477 kts | 118° |
| 2025-10-10 02:20 | 54.87080 | -0.79587 | 21260 ft | 484 kts | 112° |
| 2025-10-10 02:21 | 54.84699 | -0.68556 | 22548 ft | 492 kts | 108° |
| 2025-10-10 02:22 | 54.80266 | -0.45707 | 24963 ft | 507 kts | 108° |
| 2025-10-10 02:22 | 54.76813 | -0.28145 | 26587 ft | 519 kts | 108° |
| 2025-10-10 02:24 | 54.68405 | 0.13904 | 30075 ft | 534 kts | 108° |
| 2025-10-10 02:26 | 54.57503 | 0.67157 | 34716 ft | 516 kts | 108° |
| 2025-10-10 02:28 | 54.47778 | 1.13476 | 37244 ft | 514 kts | 108° |
| 2025-10-10 02:30 | 54.39593 | 1.51665 | 37441 ft | 513 kts | 108° |
| 2025-10-10 02:32 | 54.30830 | 1.91772 | 37443 ft | 513 kts | 108° |
| 2025-10-10 02:34 | 54.19391 | 2.42996 | 37442 ft | 513 kts | 108° |
| 2025-10-10 02:36 | 54.10756 | 2.80848 | 37438 ft | 515 kts | 108° |
| 2025-10-10 02:38 | 53.98888 | 3.31798 | 37439 ft | 514 kts | 108° |
| 2025-10-10 02:40 | 53.89601 | 3.71015 | 37440 ft | 512 kts | 109° |
| 2025-10-10 02:42 | 53.78833 | 4.21980 | 37440 ft | 510 kts | 103° |
| 2025-10-10 02:44 | 53.71451 | 4.61977 | 37438 ft | 509 kts | 103° |
| 2025-10-10 02:46 | 53.61841 | 5.13089 | 37437 ft | 508 kts | 103° |
| 2025-10-10 02:48 | 53.53049 | 5.58354 | 37435 ft | 511 kts | 104° |
| 2025-10-10 02:50 | 53.44032 | 6.03700 | 37408 ft | 512 kts | 104° |
| 2025-10-10 02:52 | 53.34825 | 6.48949 | 37410 ft | 512 kts | 104° |
| 2025-10-10 02:54 | 53.25875 | 6.91965 | 37393 ft | 511 kts | 104° |
| 2025-10-10 02:56 | 53.16365 | 7.36691 | 37383 ft | 512 kts | 104° |
| 2025-10-10 02:58 | 53.06694 | 7.81189 | 37383 ft | 512 kts | 105° |
| 2025-10-10 03:00 | 52.96829 | 8.25616 | 37386 ft | 513 kts | 105° |
| 2025-10-10 03:02 | 52.86817 | 8.69765 | 37381 ft | 512 kts | 105° |
| 2025-10-10 03:04 | 52.77908 | 9.08286 | 37377 ft | 513 kts | 105° |
| 2025-10-10 03:06 | 52.66286 | 9.57523 | 37372 ft | 512 kts | 105° |
| 2025-10-10 03:08 | 52.57119 | 9.95585 | 37352 ft | 511 kts | 105° |
| 2025-10-10 03:10 | 52.45221 | 10.44276 | 37349 ft | 511 kts | 106° |
| 2025-10-10 03:12 | 52.36570 | 10.87890 | 37348 ft | 495 kts | 84° |
| 2025-10-10 03:14 | 52.37411 | 11.32374 | 37340 ft | 488 kts | 81° |
| 2025-10-10 03:16 | 52.38263 | 11.71094 | 37340 ft | 485 kts | 81° |
| 2025-10-10 03:18 | 52.39020 | 12.20667 | 37337 ft | 485 kts | 81° |
| 2025-10-10 03:20 | 52.39517 | 12.65003 | 37311 ft | 489 kts | 82° |
| 2025-10-10 03:24 | 52.40020 | 13.48690 | 37290 ft | 492 kts | 83° |
| 2025-10-10 03:26 | 52.40007 | 13.98975 | 37280 ft | 490 kts | 83° |
| 2025-10-10 03:28 | 52.38581 | 14.43883 | 37255 ft | 497 kts | 87° |
| 2025-10-10 03:30 | 52.34644 | 14.88990 | 37243 ft | 507 kts | 94° |
| 2025-10-10 03:32 | 52.29659 | 15.34425 | 37252 ft | 508 kts | 94° |
| 2025-10-10 03:34 | 52.24428 | 15.79595 | 37259 ft | 506 kts | 95° |
| 2025-10-10 03:36 | 52.19018 | 16.24701 | 37241 ft | 508 kts | 95° |
| 2025-10-10 03:38 | 52.13421 | 16.69870 | 37209 ft | 511 kts | 96° |
| 2025-10-10 03:40 | 52.08751 | 17.15494 | 37197 ft | 513 kts | 94° |
| 2025-10-10 03:42 | 52.03933 | 17.61148 | 37192 ft | 514 kts | 94° |
| 2025-10-10 03:44 | 51.98939 | 18.06513 | 37182 ft | 512 kts | 95° |
| 2025-10-10 03:46 | 51.93831 | 18.51878 | 37186 ft | 511 kts | 95° |
| 2025-10-10 03:48 | 51.88483 | 18.96935 | 37194 ft | 511 kts | 96° |
| 2025-10-10 03:51 | 51.82272 | 19.47705 | 37204 ft | 512 kts | 97° |
| 2025-10-10 03:52 | 51.77607 | 19.87295 | 37201 ft | 512 kts | 96° |
| 2025-10-10 03:55 | 51.72009 | 20.38122 | 37170 ft | 511 kts | 96° |
| 2025-10-10 03:56 | 51.67731 | 20.75647 | 37160 ft | 510 kts | 97° |
| 2025-10-10 03:58 | 51.62429 | 21.20426 | 37167 ft | 508 kts | 97° |
| 2025-10-10 04:00 | 51.56974 | 21.64968 | 37162 ft | 508 kts | 98° |
| 2025-10-10 04:02 | 51.51395 | 22.09521 | 37151 ft | 508 kts | 99° |
| 2025-10-10 04:04 | 51.45735 | 22.52369 | 37143 ft | 507 kts | 99° |
| 2025-10-10 04:06 | 51.40696 | 22.89324 | 37141 ft | 506 kts | 100° |
| 2025-10-10 04:08 | 51.34757 | 23.33302 | 37142 ft | 505 kts | 100° |
| 2025-10-10 04:10 | 51.28479 | 23.76966 | 37139 ft | 505 kts | 101° |
| 2025-10-10 04:12 | 51.22790 | 24.15111 | 37143 ft | 504 kts | 102° |
| 2025-10-10 04:14 | 51.15570 | 24.63954 | 37141 ft | 504 kts | 102° |
| 2025-10-10 04:16 | 51.09725 | 25.01819 | 37138 ft | 503 kts | 102° |
| 2025-10-10 04:18 | 51.02049 | 25.50235 | 37129 ft | 503 kts | 103° |
| 2025-10-10 04:20 | 50.95055 | 25.93157 | 37123 ft | 503 kts | 103° |
| 2025-10-10 04:23 | 50.87002 | 26.41273 | 37092 ft | 502 kts | 103° |
| 2025-10-10 04:24 | 50.80622 | 26.78468 | 37088 ft | 501 kts | 104° |
| 2025-10-10 04:26 | 50.73191 | 27.20936 | 37043 ft | 502 kts | 104° |
| 2025-10-10 04:28 | 50.65495 | 27.63262 | 37045 ft | 502 kts | 104° |
| 2025-10-10 04:30 | 50.57737 | 28.05488 | 37028 ft | 503 kts | 104° |
| 2025-10-10 04:32 | 50.50839 | 28.42356 | 36981 ft | 502 kts | 105° |
| 2025-10-10 04:34 | 50.39878 | 28.88307 | 36981 ft | 502 kts | 114° |
| 2025-10-10 04:36 | 50.31370 | 29.16042 | 36411 ft | 500 kts | 113° |
| 2025-10-10 04:38 | 50.20581 | 29.57981 | 31200 ft | 452 kts | 79° |
| 2025-10-10 04:40 | 50.28375 | 29.88641 | 27331 ft | 421 kts | 61° |
| 2025-10-10 04:41 | 50.34535 | 30.08952 | 24746 ft | 405 kts | 62° |
| 2025-10-10 04:42 | 50.36903 | 30.16877 | 23736 ft | 399 kts | 62° |
| 2025-10-10 04:42 | 50.39149 | 30.24752 | 22715 ft | 395 kts | 71° |
| 2025-10-10 04:43 | 50.39131 | 30.33275 | 21691 ft | 396 kts | 98° |
| 2025-10-10 04:43 | 50.38517 | 30.37470 | 21170 ft | 395 kts | 102° |
| 2025-10-10 04:44 | 50.36839 | 30.45618 | 20177 ft | 391 kts | 108° |
| 2025-10-10 04:44 | 50.34973 | 30.53549 | 19201 ft | 385 kts | 108° |
| 2025-10-10 04:45 | 50.33190 | 30.61341 | 18237 ft | 380 kts | 108° |
| 2025-10-10 04:45 | 50.30940 | 30.68646 | 17155 ft | 366 kts | 132° |
| 2025-10-10 04:46 | 50.24908 | 30.74047 | 16844 ft | 309 kts | 165° |
| 2025-10-10 04:46 | 50.20819 | 30.75206 | 16101 ft | 294 kts | 174° |
| 2025-10-10 04:47 | 50.16783 | 30.75193 | 15151 ft | 287 kts | 184° |
| 2025-10-10 04:47 | 50.12825 | 30.74723 | 14204 ft | 282 kts | 186° |
| 2025-10-10 04:48 | 50.09049 | 30.74434 | 13562 ft | 262 kts | 183° |
| 2025-10-10 04:48 | 50.05490 | 30.74234 | 12564 ft | 254 kts | 184° |
| 2025-10-10 04:49 | 50.01994 | 30.73980 | 11422 ft | 251 kts | 184° |
| 2025-10-10 04:50 | 49.96730 | 30.73604 | 9568 ft | 253 kts | 185° |
| 2025-10-10 04:50 | 49.93358 | 30.73365 | 8920 ft | 229 kts | 185° |
| 2025-10-10 04:50 | 49.91784 | 30.73253 | 8450 ft | 226 kts | 185° |
| 2025-10-10 04:51 | 49.88632 | 30.73358 | 7352 ft | 230 kts | 162° |
| 2025-10-10 04:51 | 49.86597 | 30.76882 | 6284 ft | 222 kts | 110° |
| 2025-10-10 04:52 | 49.86146 | 30.81584 | 5387 ft | 217 kts | 86° |
| 2025-10-10 04:52 | 49.87601 | 30.85147 | 4427 ft | 199 kts | 26° |
| 2025-10-10 04:53 | 49.90154 | 30.86308 | 3695 ft | 188 kts | 6° |
| 2025-10-10 04:54 | 49.93987 | 30.86312 | 3102 ft | 187 kts | 357° |
| 2025-10-10 04:54 | 49.95289 | 30.86351 | 3046 ft | 187 kts | 359° |
| 2025-10-10 04:54 | 49.97816 | 30.86596 | 3067 ft | 181 kts | 1° |
| 2025-10-10 04:55 | 50.00326 | 30.86881 | 3022 ft | 180 kts | 0° |
| 2025-10-10 04:55 | 50.02847 | 30.87054 | 3025 ft | 182 kts | 359° |
| 2025-10-10 04:56 | 50.05370 | 30.87220 | 3022 ft | 182 kts | 359° |
| 2025-10-10 04:56 | 50.06634 | 30.87337 | 3024 ft | 182 kts | 2° |
| 2025-10-10 04:57 | 50.10377 | 30.88234 | 3018 ft | 183 kts | 6° |
| 2025-10-10 04:57 | 50.12471 | 30.88732 | 3020 ft | 182 kts | 4° |
| 2025-10-10 04:58 | 50.14997 | 30.89087 | 3020 ft | 182 kts | 1° |
| 2025-10-10 04:58 | 50.17500 | 30.89286 | 3016 ft | 182 kts | 360° |
| 2025-10-10 04:59 | 50.20031 | 30.89473 | 2864 ft | 182 kts | 360° |
| 2025-10-10 04:59 | 50.22498 | 30.89653 | 2358 ft | 173 kts | 360° |
| 2025-10-10 05:00 | 50.24867 | 30.89826 | 1901 ft | 168 kts | 360° |
| 2025-10-10 05:00 | 50.27096 | 30.89990 | 1477 ft | 156 kts | 0° |
| 2025-10-10 05:01 | 50.29255 | 30.90148 | 1069 ft | 155 kts | 0° |
| 2025-10-10 05:01 | 50.30308 | 30.90225 | 881 ft | 148 kts | 1° |
| 2025-10-10 05:02 | 50.33292 | 30.90427 | 441 ft | 114 kts | 1° |
| 2025-10-10 05:02 | 50.34110 | 30.90497 | 440 ft | 16 kts | 5° |
| 2025-10-10 05:03 | 50.34170 | 30.90420 | 440 ft | 5 kts | 219° |
| 2025-10-10 05:03 | 50.34026 | 30.90282 | 440 ft | 16 kts | 244° |
| 2025-10-10 05:04 | 50.34181 | 30.90181 | 440 ft | 14 kts | 2° |
| 2025-10-10 05:04 | 50.34274 | 30.90187 | 440 ft | 13 kts | 2° |
| 2025-10-10 05:05 | 50.34448 | 30.90200 | 440 ft | 12 kts | 4° |
| 2025-10-10 05:05 | 50.34632 | 30.90216 | 440 ft | 13 kts | 2° |
| 2025-10-10 05:06 | 50.34869 | 30.90168 | 440 ft | 11 kts | 288° |
| 2025-10-10 05:06 | 50.34956 | 30.89987 | 440 ft | 10 kts | 280° |
| 2025-10-10 05:07 | 50.34958 | 30.89856 | 440 ft | 0 kts | 271° |